createdAt,value
2023-02-06T00:02:18.848Z,102929.00
2023-02-06T00:04:52.882Z,102919.00
2023-02-06T00:07:26.511Z,102924.00
2023-02-06T00:10:00.407Z,102921.00
2023-02-06T00:12:34.164Z,102922.00
2023-02-06T00:15:11.146Z,102905.00
2023-02-06T00:17:45.251Z,102918.00
2023-02-06T00:20:19.319Z,102918.00
2023-02-06T00:22:53.151Z,102908.00
2023-02-06T00:25:26.712Z,102912.00
2023-02-06T00:28:00.608Z,102912.00
2023-02-06T00:30:36.229Z,102907.00
2023-02-06T00:33:09.482Z,102913.00
2023-02-06T00:35:43.818Z,102915.00
2023-02-06T00:38:17.638Z,102909.00
2023-02-06T00:40:51.325Z,102905.00
2023-02-06T00:43:25.300Z,102905.00
2023-02-06T00:46:00.496Z,102887.00
2023-02-06T00:48:34.356Z,102896.00
2023-02-06T00:51:08.053Z,102902.00
2023-02-06T00:53:41.765Z,102888.00
2023-02-06T00:56:15.613Z,102895.00
2023-02-06T00:58:49.235Z,102905.00
2023-02-06T01:01:26.373Z,102898.00
2023-02-06T01:04:00.418Z,102887.00
2023-02-06T01:06:34.220Z,102886.00
2023-02-06T01:09:08.289Z,102880.00
2023-02-06T01:11:42.025Z,102880.00
2023-02-06T01:14:15.946Z,102879.00
2023-02-06T01:16:51.029Z,102885.00
2023-02-06T01:19:24.856Z,102885.00
2023-02-06T01:22:01.632Z,102890.00
2023-02-06T01:24:35.540Z,102896.00
2023-02-06T01:27:09.106Z,102896.00
2023-02-06T01:29:43.171Z,102903.00
2023-02-06T01:32:18.026Z,102901.00
2023-02-06T01:34:51.869Z,102896.00
2023-02-06T01:37:25.303Z,102885.00
2023-02-06T01:39:58.683Z,102902.00
2023-02-06T01:42:35.000Z,102904.00
2023-02-06T01:45:39.369Z,102900.00
2023-02-06T01:48:20.276Z,102900.00
2023-02-06T01:50:59.209Z,102903.00
2023-02-06T01:53:34.094Z,102899.00
2023-02-06T01:56:09.463Z,102898.00
2023-02-06T01:58:47.748Z,102889.00
2023-02-06T02:01:24.257Z,102885.00
2023-02-06T02:04:07.255Z,102889.00
2023-02-06T02:06:43.110Z,102896.00
2023-02-06T02:09:17.460Z,102904.00
2023-02-06T02:11:51.240Z,102908.00
2023-02-06T02:14:24.917Z,102904.00
2023-02-06T02:17:20.108Z,102897.00
2023-02-06T02:20:34.360Z,102886.00
2023-02-06T02:23:33.156Z,102883.00
2023-02-06T02:27:08.671Z,102880.00
2023-02-06T02:30:53.562Z,102877.00
2023-02-06T02:34:08.139Z,102881.00
2023-02-06T02:36:52.900Z,102885.00
2023-02-06T02:39:44.119Z,102881.00
2023-02-06T02:42:27.831Z,102884.00
2023-02-06T02:45:14.590Z,102880.00
2023-02-06T02:48:08.849Z,102884.00
2023-02-06T02:50:43.146Z,102883.00
2023-02-06T02:53:19.790Z,102886.00
2023-02-06T02:55:53.333Z,102883.00
2023-02-06T02:58:35.579Z,102883.00
2023-02-06T03:01:17.152Z,102861.00
2023-02-06T03:03:54.857Z,102887.00
2023-02-06T03:07:05.051Z,102885.00
2023-02-06T03:09:58.548Z,102882.00
2023-02-06T03:12:42.637Z,102878.00
2023-02-06T03:15:27.908Z,102889.00
2023-02-06T03:18:12.724Z,102895.00
2023-02-06T03:20:49.166Z,102883.00
2023-02-06T03:23:32.037Z,102883.00
2023-02-06T03:26:13.645Z,102883.00
2023-02-06T03:28:51.460Z,102874.00
2023-02-06T03:31:33.525Z,102879.00
2023-02-06T03:34:19.459Z,102880.00
2023-02-06T03:36:54.273Z,102881.00
2023-02-06T03:39:29.021Z,102878.00
2023-02-06T03:42:06.181Z,102883.00
2023-02-06T03:44:45.710Z,102889.00
2023-02-06T03:47:22.369Z,102888.00
2023-02-06T03:50:01.395Z,102864.00
2023-02-06T03:52:42.159Z,102888.00
2023-02-06T03:55:21.211Z,102863.00
2023-02-06T03:58:04.037Z,102878.00
2023-02-06T04:00:42.442Z,102877.00
2023-02-06T04:03:17.060Z,102873.00
2023-02-06T04:05:50.599Z,102874.00
2023-02-06T04:08:24.784Z,102880.00
2023-02-06T04:10:58.596Z,102889.00
2023-02-06T04:13:33.868Z,102879.00
2023-02-06T04:16:07.964Z,102884.00
2023-02-06T04:18:41.442Z,102865.00
2023-02-06T04:21:14.770Z,102877.00
2023-02-06T04:23:48.593Z,102882.00
2023-02-06T04:26:22.269Z,102883.00
2023-02-06T04:28:57.136Z,102879.00
2023-02-06T04:31:31.379Z,102884.00
2023-02-06T04:34:04.910Z,102887.00
2023-02-06T04:36:38.910Z,102904.00
2023-02-06T04:39:13.197Z,102902.00
2023-02-06T04:41:46.831Z,102896.00
2023-02-06T04:44:22.594Z,102899.00
2023-02-06T04:46:56.333Z,102898.00
2023-02-06T04:49:30.170Z,102890.00
2023-02-06T04:52:03.466Z,102901.00
2023-02-06T04:54:36.881Z,102910.00
2023-02-06T04:57:10.246Z,102911.00
2023-02-06T04:59:45.605Z,102914.00
2023-02-06T05:02:18.967Z,102913.00
2023-02-06T05:04:52.849Z,102915.00
2023-02-06T05:07:26.076Z,102907.00
2023-02-06T05:09:59.780Z,102903.00
2023-02-06T05:12:33.349Z,102898.00
2023-02-06T05:15:10.344Z,102895.00
2023-02-06T05:17:44.236Z,102889.00
2023-02-06T05:20:18.114Z,102896.00
2023-02-06T05:22:51.911Z,102888.00
2023-02-06T05:25:27.063Z,102878.00
2023-02-06T05:28:01.414Z,102878.00
2023-02-06T05:30:36.741Z,102849.00
2023-02-06T05:33:10.222Z,102881.00
2023-02-06T05:35:44.119Z,102888.00
2023-02-06T05:38:17.896Z,102881.00
2023-02-06T05:40:53.278Z,102879.00
2023-02-06T05:43:27.286Z,102873.00
2023-02-06T05:46:02.427Z,102872.00
2023-02-06T05:48:36.829Z,102867.00
2023-02-06T05:51:10.430Z,102871.00
2023-02-06T05:53:54.986Z,102869.00
2023-02-06T05:56:30.793Z,102866.00
2023-02-06T05:59:04.688Z,102873.00
2023-02-06T06:01:51.656Z,102872.00
2023-02-06T06:04:25.565Z,102876.00
2023-02-06T06:07:00.030Z,102868.00
2023-02-06T06:09:33.967Z,102866.00
2023-02-06T06:12:08.224Z,102860.00
2023-02-06T06:14:42.198Z,102863.00
2023-02-06T06:17:17.714Z,102869.00
2023-02-06T06:19:51.210Z,102859.00
2023-02-06T06:22:25.196Z,102874.00
2023-02-06T06:24:59.222Z,102876.00
2023-02-06T06:27:32.780Z,102859.00
2023-02-06T06:30:07.820Z,102868.00
2023-02-06T06:32:44.058Z,102866.00
2023-02-06T06:35:17.753Z,102869.00
2023-02-06T06:37:51.560Z,102872.00
2023-02-06T06:40:28.161Z,102853.00
2023-02-06T06:43:02.866Z,102847.00
2023-02-06T06:45:37.896Z,102857.00
2023-02-06T06:48:15.564Z,102856.00
2023-02-06T06:50:50.493Z,102856.00
2023-02-06T06:53:24.668Z,102849.00
2023-02-06T06:56:05.282Z,102855.00
2023-02-06T06:58:39.385Z,102851.00
2023-02-06T07:01:13.259Z,102849.00
2023-02-06T07:03:48.628Z,102855.00
2023-02-06T07:06:22.217Z,102856.00
2023-02-06T07:08:55.790Z,102857.00
2023-02-06T07:11:29.993Z,102852.00
2023-02-06T07:14:03.738Z,102863.00
2023-02-06T07:16:37.345Z,102857.00
2023-02-06T07:19:14.161Z,102853.00
2023-02-06T07:21:47.945Z,102853.00
2023-02-06T07:24:21.777Z,102861.00
2023-02-06T07:26:55.140Z,102861.00
2023-02-06T07:29:28.785Z,102848.00
2023-02-06T07:32:02.278Z,102855.00
2023-02-06T07:34:38.238Z,102848.00
2023-02-06T07:37:14.023Z,102856.00
2023-02-06T07:39:48.237Z,102861.00
2023-02-06T07:42:26.217Z,102844.00
2023-02-06T07:45:03.899Z,102863.00
2023-02-06T07:47:41.099Z,102860.00
2023-02-06T07:50:18.137Z,102848.00
2023-02-06T07:52:57.225Z,102854.00
2023-02-06T07:55:32.868Z,102857.00
2023-02-06T07:58:06.516Z,102858.00
2023-02-06T08:00:40.462Z,102859.00
2023-02-06T08:03:14.681Z,102858.00
2023-02-06T08:05:49.512Z,102856.00
2023-02-06T08:08:23.048Z,102834.00
2023-02-06T08:10:56.459Z,102859.00
2023-02-06T08:13:30.471Z,102858.00
2023-02-06T08:16:10.138Z,102871.00
2023-02-06T08:18:45.513Z,102866.00
2023-02-06T08:21:24.217Z,102874.00
2023-02-06T08:23:59.207Z,102876.00
2023-02-06T08:26:36.358Z,102863.00
2023-02-06T08:29:10.469Z,102862.00
2023-02-06T08:31:45.622Z,102859.00
2023-02-06T08:34:20.430Z,102850.00
2023-02-06T08:36:57.800Z,102858.00
2023-02-06T08:39:31.518Z,102850.00
2023-02-06T08:42:05.929Z,102854.00
2023-02-06T08:44:39.281Z,102846.00
2023-02-06T08:47:13.882Z,102823.00
2023-02-06T08:49:47.849Z,102843.00
2023-02-06T08:52:24.163Z,102851.00
2023-02-06T08:54:57.624Z,102854.00
2023-02-06T08:57:31.466Z,102865.00
2023-02-06T09:00:06.697Z,102856.00
2023-02-06T09:02:40.153Z,102861.00
2023-02-06T09:05:14.485Z,102857.00
2023-02-06T09:07:50.085Z,102865.00
2023-02-06T09:10:27.755Z,102859.00
2023-02-06T09:13:02.466Z,102867.00
2023-02-06T09:15:36.906Z,102871.00
2023-02-06T09:18:11.445Z,102874.00
2023-02-06T09:20:46.453Z,102877.00
2023-02-06T09:23:21.795Z,102866.00
2023-02-06T09:25:55.643Z,102872.00
2023-02-06T09:28:34.232Z,102869.00
2023-02-06T09:31:10.027Z,102874.00
2023-02-06T09:33:44.148Z,102880.00
2023-02-06T09:36:22.043Z,102879.00
2023-02-06T09:38:58.598Z,102883.00
2023-02-06T09:41:39.355Z,102882.00
2023-02-06T09:44:24.070Z,102861.00
2023-02-06T09:47:05.388Z,102886.00
2023-02-06T09:49:44.719Z,102877.00
2023-02-06T09:52:52.758Z,102883.00
2023-02-06T09:55:38.161Z,102863.00
2023-02-06T09:58:24.713Z,102888.00
2023-02-06T10:01:09.329Z,102886.00
2023-02-06T10:04:01.712Z,102879.00
2023-02-06T10:06:43.634Z,102884.00
2023-02-06T10:09:23.715Z,102888.00
2023-02-06T10:12:06.667Z,102891.00
2023-02-06T10:14:48.103Z,102886.00
2023-02-06T10:17:27.431Z,102879.00
2023-02-06T10:20:07.691Z,102874.00
2023-02-06T10:22:51.053Z,102877.00
2023-02-06T10:25:32.009Z,102862.00
2023-02-06T10:28:26.024Z,102866.00
2023-02-06T10:31:18.000Z,102868.00
2023-02-06T10:34:09.720Z,102871.00
2023-02-06T10:37:02.444Z,102857.00
2023-02-06T10:40:03.085Z,102845.00
2023-02-06T10:42:51.808Z,102833.00
2023-02-06T10:45:43.575Z,102856.00
2023-02-06T10:48:34.046Z,102855.00
2023-02-06T10:51:20.017Z,102858.00
2023-02-06T10:53:58.842Z,102855.00
2023-02-06T10:56:40.770Z,102842.00
2023-02-06T10:59:28.158Z,102846.00
2023-02-06T11:02:28.218Z,102841.00
2023-02-06T11:05:07.735Z,102835.00
2023-02-06T11:07:46.248Z,102827.00
2023-02-06T11:10:23.220Z,102806.00
2023-02-06T11:13:05.090Z,102817.00
2023-02-06T11:15:52.109Z,102826.00
2023-02-06T11:18:33.590Z,102814.00
2023-02-06T11:21:10.089Z,102813.00
2023-02-06T11:23:44.267Z,102810.00
2023-02-06T11:26:22.139Z,102807.00
2023-02-06T11:29:01.868Z,102817.00
2023-02-06T11:31:46.346Z,102808.00
2023-02-06T11:34:29.734Z,102817.00
2023-02-06T11:37:06.924Z,102807.00
2023-02-06T11:39:41.122Z,102812.00
2023-02-06T11:42:25.076Z,102802.00
2023-02-06T11:44:58.832Z,102806.00
2023-02-06T11:47:37.740Z,102799.00
2023-02-06T11:50:31.943Z,102807.00
2023-02-06T11:53:12.293Z,102807.00
2023-02-06T11:55:59.421Z,102780.00
2023-02-06T11:58:34.010Z,102804.00
2023-02-06T12:01:17.645Z,102810.00
2023-02-06T12:03:57.885Z,102804.00
2023-02-06T12:06:37.283Z,102806.00
2023-02-06T12:09:14.148Z,102802.00
2023-02-06T12:11:55.598Z,102814.00
2023-02-06T12:14:39.248Z,102815.00
2023-02-06T12:17:28.478Z,102821.00
2023-02-06T12:20:09.017Z,102828.00
2023-02-06T12:22:51.757Z,102825.00
2023-02-06T12:25:34.165Z,102809.00
2023-02-06T12:28:20.041Z,102806.00
2023-02-06T12:30:59.266Z,102802.00
2023-02-06T12:33:41.664Z,102810.00
2023-02-06T12:36:20.370Z,102805.00
2023-02-06T12:39:02.891Z,102807.00
2023-02-06T12:42:07.895Z,102794.00
2023-02-06T12:44:50.449Z,102797.00
2023-02-06T12:47:34.386Z,102795.00
2023-02-06T12:50:16.298Z,102781.00
2023-02-06T12:52:55.357Z,102765.00
2023-02-06T12:55:36.988Z,102777.00
2023-02-06T12:58:29.283Z,102770.00
2023-02-06T13:01:37.337Z,102767.00
2023-02-06T13:04:17.585Z,102764.00
2023-02-06T13:06:57.242Z,102763.00
2023-02-06T13:09:36.266Z,102774.00
2023-02-06T13:12:17.614Z,102769.00
2023-02-06T13:14:55.345Z,102768.00
2023-02-06T13:17:37.631Z,102779.00
2023-02-06T13:20:20.987Z,102768.00
2023-02-06T13:23:16.689Z,102766.00
2023-02-06T13:25:50.630Z,102759.00
2023-02-06T13:29:22.729Z,102742.00
2023-02-06T13:32:46.778Z,102748.00
2023-02-06T13:35:28.818Z,102744.00
2023-02-06T13:38:38.542Z,102741.00
2023-02-06T13:41:32.963Z,102746.00
2023-02-06T13:44:20.136Z,102744.00
2023-02-06T13:47:42.216Z,102748.00
2023-02-06T13:50:46.954Z,102751.00
2023-02-06T13:53:44.681Z,102748.00
2023-02-06T13:56:56.202Z,102743.00
2023-02-06T13:59:37.132Z,102749.00
2023-02-06T14:02:16.046Z,102748.00
2023-02-06T14:04:51.684Z,102734.00
2023-02-06T14:07:50.886Z,102750.00
2023-02-06T14:11:13.471Z,102743.00
2023-02-06T14:14:28.369Z,102739.00
2023-02-06T14:17:20.134Z,102745.00
2023-02-06T14:20:09.168Z,102739.00
2023-02-06T14:22:56.822Z,102738.00
2023-02-06T14:25:53.965Z,102744.00
2023-02-06T14:28:41.089Z,102735.00
2023-02-06T14:31:39.208Z,102733.00
2023-02-06T14:34:33.456Z,102749.00
2023-02-06T14:37:51.526Z,102741.00
2023-02-06T14:40:28.578Z,102734.00
2023-02-06T14:43:07.579Z,102737.00
2023-02-06T14:45:49.700Z,102742.00
2023-02-06T14:48:39.812Z,102738.00
2023-02-06T14:51:26.404Z,102735.00
2023-02-06T14:54:03.270Z,102731.00
2023-02-06T14:56:39.249Z,102735.00
2023-02-06T14:59:18.821Z,102726.00
2023-02-06T15:01:54.881Z,102743.00
2023-02-06T15:04:31.981Z,102747.00
2023-02-06T15:07:07.191Z,102755.00
2023-02-06T15:09:44.443Z,102761.00
2023-02-06T15:12:22.997Z,102756.00
2023-02-06T15:15:02.867Z,102756.00
2023-02-06T15:17:36.527Z,102751.00
2023-02-06T15:20:41.460Z,102748.00
2023-02-06T15:23:25.455Z,102747.00
2023-02-06T15:26:16.452Z,102742.00
2023-02-06T15:28:56.565Z,102734.00
2023-02-06T15:31:32.127Z,102722.00
2023-02-06T15:34:06.122Z,102717.00
2023-02-06T15:36:41.312Z,102711.00
2023-02-06T15:39:18.720Z,102710.00
2023-02-06T15:41:54.827Z,102715.00
2023-02-06T15:44:34.612Z,102714.00
2023-02-06T15:47:16.132Z,102709.00
2023-02-06T15:49:53.337Z,102707.00
2023-02-06T15:52:39.762Z,102712.00
2023-02-06T15:55:28.565Z,102714.00
2023-02-06T15:58:05.862Z,102721.00
2023-02-06T16:00:39.882Z,102712.00
2023-02-06T16:03:24.214Z,102677.00
2023-02-06T16:06:00.254Z,102713.00
2023-02-06T16:08:38.210Z,102711.00
2023-02-06T16:11:27.457Z,102721.00
2023-02-06T16:14:01.600Z,102729.00
2023-02-06T16:16:35.691Z,102723.00
2023-02-06T16:19:38.496Z,102718.00
2023-02-06T16:22:23.842Z,102715.00
2023-02-06T16:25:20.903Z,102704.00
2023-02-06T16:27:56.201Z,102703.00
2023-02-06T16:30:38.050Z,102706.00
2023-02-06T16:33:29.981Z,102698.00
2023-02-06T16:36:03.709Z,102701.00
2023-02-06T16:38:37.167Z,102705.00
2023-02-06T16:41:27.792Z,102704.00
2023-02-06T16:44:04.814Z,102695.00
2023-02-06T16:46:38.754Z,102697.00
2023-02-06T16:49:17.754Z,102693.00
2023-02-06T16:51:55.385Z,102689.00
2023-02-06T16:54:32.610Z,102692.00
2023-02-06T16:57:15.510Z,102693.00
2023-02-06T16:59:51.416Z,102709.00
2023-02-06T17:02:26.874Z,102703.00
2023-02-06T17:05:00.740Z,102710.00
2023-02-06T17:07:35.364Z,102716.00
2023-02-06T17:10:10.950Z,102709.00
2023-02-06T17:12:45.818Z,102704.00
2023-02-06T17:15:24.005Z,102697.00
2023-02-06T17:18:01.334Z,102700.00
2023-02-06T17:20:39.356Z,102694.00
2023-02-06T17:23:14.619Z,102691.00
2023-02-06T17:25:48.811Z,102703.00
2023-02-06T17:28:25.631Z,102696.00
2023-02-06T17:31:01.145Z,102697.00
2023-02-06T17:33:34.920Z,102693.00
2023-02-06T17:36:15.577Z,102692.00
2023-02-06T17:38:50.264Z,102689.00
2023-02-06T17:41:23.584Z,102708.00
2023-02-06T17:43:57.588Z,102711.00
2023-02-06T17:46:34.737Z,102710.00
2023-02-06T17:49:08.465Z,102710.00
2023-02-06T17:51:43.572Z,102702.00
2023-02-06T17:54:17.431Z,102698.00
2023-02-06T17:56:50.993Z,102706.00
2023-02-06T17:59:24.628Z,102701.00
2023-02-06T18:02:00.020Z,102698.00
2023-02-06T18:04:33.537Z,102701.00
2023-02-06T18:07:08.297Z,102698.00
2023-02-06T18:09:42.483Z,102694.00
2023-02-06T18:12:16.451Z,102699.00
2023-02-06T18:14:50.115Z,102699.00
2023-02-06T18:17:26.926Z,102699.00
2023-02-06T18:20:00.488Z,102689.00
2023-02-06T18:22:41.039Z,102700.00
2023-02-06T18:25:16.683Z,102684.00
2023-02-06T18:27:50.571Z,102678.00
2023-02-06T18:30:25.554Z,102689.00
2023-02-06T18:33:00.622Z,102690.00
2023-02-06T18:35:40.064Z,102699.00
2023-02-06T18:38:15.334Z,102702.00
2023-02-06T18:40:50.001Z,102692.00
2023-02-06T18:43:22.457Z,102705.00
2023-02-06T18:45:56.314Z,102716.00
2023-02-06T18:48:31.505Z,102714.00
2023-02-06T18:51:09.172Z,102706.00
2023-02-06T18:53:42.544Z,102716.00
2023-02-06T18:56:16.775Z,102719.00
2023-02-06T18:58:50.460Z,102720.00
2023-02-06T19:01:26.566Z,102722.00
2023-02-06T19:04:01.573Z,102717.00
2023-02-06T19:06:36.763Z,102719.00
2023-02-06T19:09:12.191Z,102720.00
2023-02-06T19:11:45.788Z,102717.00
2023-02-06T19:14:22.906Z,102720.00
2023-02-06T19:16:58.241Z,102696.00
2023-02-06T19:19:33.168Z,102692.00
2023-02-06T19:22:06.643Z,102690.00
2023-02-06T19:24:41.840Z,102693.00
2023-02-06T19:27:16.006Z,102697.00
2023-02-06T19:29:50.455Z,102709.00
2023-02-06T19:32:26.142Z,102708.00
2023-02-06T19:35:01.509Z,102703.00
2023-02-06T19:37:35.035Z,102713.00
2023-02-06T19:40:09.582Z,102707.00
2023-02-06T19:42:43.872Z,102704.00
2023-02-06T19:45:17.492Z,102711.00
2023-02-06T19:47:51.828Z,102713.00
2023-02-06T19:50:27.165Z,102712.00
2023-02-06T19:53:01.284Z,102707.00
2023-02-06T19:55:34.895Z,102718.00
2023-02-06T19:58:08.551Z,102716.00
2023-02-06T20:00:42.030Z,102719.00
2023-02-06T20:03:15.634Z,102716.00
2023-02-06T20:05:50.912Z,102718.00
2023-02-06T20:08:24.216Z,102718.00
2023-02-06T20:10:57.831Z,102722.00
2023-02-06T20:13:31.672Z,102738.00
2023-02-06T20:16:07.514Z,102712.00
2023-02-06T20:18:41.032Z,102731.00
2023-02-06T20:21:26.850Z,102731.00
2023-02-06T20:24:03.840Z,102719.00
2023-02-06T20:26:41.687Z,102732.00
2023-02-06T20:29:22.627Z,102725.00
2023-02-06T20:31:57.789Z,102728.00
2023-02-06T20:34:32.171Z,102736.00
2023-02-06T20:37:07.787Z,102740.00
2023-02-06T20:39:41.735Z,102753.00
2023-02-06T20:42:17.201Z,102742.00
2023-02-06T20:44:51.902Z,102736.00
2023-02-06T20:47:26.332Z,102730.00
2023-02-06T20:50:01.871Z,102744.00
2023-02-06T20:52:37.845Z,102737.00
2023-02-06T20:55:11.925Z,102741.00
2023-02-06T20:57:45.545Z,102731.00
2023-02-06T21:00:21.013Z,102735.00
2023-02-06T21:02:54.616Z,102733.00
2023-02-06T21:05:28.908Z,102712.00
2023-02-06T21:08:04.557Z,102724.00
2023-02-06T21:10:38.210Z,102724.00
2023-02-06T21:13:12.458Z,102715.00
2023-02-06T21:15:53.286Z,102704.00
2023-02-06T21:18:31.023Z,102710.00
2023-02-06T21:21:09.626Z,102708.00
2023-02-06T21:23:45.235Z,102694.00
2023-02-06T21:26:20.100Z,102705.00
2023-02-06T21:28:54.280Z,102709.00
2023-02-06T21:31:36.839Z,102707.00
2023-02-06T21:34:15.627Z,102711.00
2023-02-06T21:36:50.172Z,102717.00
2023-02-06T21:39:29.021Z,102717.00
2023-02-06T21:42:02.659Z,102715.00
2023-02-06T21:44:37.102Z,102715.00
2023-02-06T21:47:11.442Z,102717.00
2023-02-06T21:49:46.515Z,102712.00
2023-02-06T21:52:20.537Z,102708.00
2023-02-06T21:54:56.709Z,102717.00
2023-02-06T21:57:30.585Z,102717.00
2023-02-06T22:00:04.676Z,102711.00
2023-02-06T22:02:39.429Z,102701.00
2023-02-06T22:05:13.091Z,102707.00
2023-02-06T22:07:47.473Z,102693.00
2023-02-06T22:10:22.648Z,102692.00
2023-02-06T22:12:56.518Z,102691.00
2023-02-06T22:15:29.874Z,102693.00
2023-02-06T22:18:03.431Z,102690.00
2023-02-06T22:20:36.876Z,102686.00
2023-02-06T22:23:10.762Z,102692.00
2023-02-06T22:25:49.333Z,102688.00
2023-02-06T22:28:22.842Z,102682.00
2023-02-06T22:31:05.883Z,102682.00
2023-02-06T22:33:40.580Z,102686.00
2023-02-06T22:36:19.081Z,102671.00
2023-02-06T22:38:56.064Z,102686.00
2023-02-06T22:41:31.932Z,102680.00
2023-02-06T22:44:05.880Z,102697.00
2023-02-06T22:46:40.873Z,102695.00
2023-02-06T22:49:15.470Z,102692.00
2023-02-06T22:51:49.590Z,102697.00
2023-02-06T22:54:24.272Z,102685.00
2023-02-06T22:56:59.180Z,102680.00
2023-02-06T22:59:33.013Z,102676.00
2023-02-06T23:02:06.782Z,102678.00
2023-02-06T23:04:40.832Z,102683.00
2023-02-06T23:07:15.621Z,102687.00
2023-02-06T23:09:49.398Z,102687.00
2023-02-06T23:12:24.245Z,102669.00
2023-02-06T23:14:57.840Z,102681.00
2023-02-06T23:17:31.578Z,102678.00
2023-02-06T23:20:07.190Z,102659.00
2023-02-06T23:22:40.851Z,102663.00
2023-02-06T23:25:14.704Z,102681.00
2023-02-06T23:27:50.186Z,102694.00
2023-02-06T23:30:24.428Z,102672.00
2023-02-06T23:32:58.103Z,102665.00
2023-02-06T23:35:31.642Z,102659.00
2023-02-06T23:38:06.405Z,102670.00
2023-02-06T23:40:40.988Z,102685.00
2023-02-06T23:43:16.301Z,102678.00
2023-02-06T23:45:51.496Z,102687.00
2023-02-06T23:48:25.349Z,102683.00
2023-02-06T23:50:58.890Z,102690.00
2023-02-06T23:53:32.615Z,102687.00
2023-02-06T23:56:13.059Z,102684.00
2023-02-06T23:58:48.331Z,102703.00
